sensor_id;sensor_type;location;lat;lon;timestamp;P1;durP1;ratioP1;P2;durP2;ratioP2
11222;SDS011;5668;52.012;8.724;2023-04-25T00:00:42;13.10;;;5.47;;
11222;SDS011;5668;52.012;8.724;2023-04-25T00:03:10;9.97;;;5.23;;
11222;SDS011;5668;52.012;8.724;2023-04-25T00:05:38;12.27;;;5.20;;
11222;SDS011;5668;52.012;8.724;2023-04-25T00:08:06;9.23;;;4.87;;
11222;SDS011;5668;52.012;8.724;2023-04-25T00:10:33;10.63;;;5.40;;
11222;SDS011;5668;52.012;8.724;2023-04-25T00:13:01;15.73;;;5.87;;
11222;SDS011;5668;52.012;8.724;2023-04-25T00:15:28;14.67;;;5.67;;
11222;SDS011;5668;52.012;8.724;2023-04-25T00:17:56;12.10;;;5.77;;
11222;SDS011;5668;52.012;8.724;2023-04-25T00:20:24;10.83;;;5.70;;
11222;SDS011;5668;52.012;8.724;2023-04-25T00:22:52;16.93;;;5.30;;
11222;SDS011;5668;52.012;8.724;2023-04-25T00:25:19;12.60;;;5.57;;
11222;SDS011;5668;52.012;8.724;2023-04-25T00:27:46;12.93;;;5.17;;
11222;SDS011;5668;52.012;8.724;2023-04-25T00:30:14;10.07;;;5.60;;
11222;SDS011;5668;52.012;8.724;2023-04-25T00:32:41;9.73;;;5.10;;
11222;SDS011;5668;52.012;8.724;2023-04-25T00:35:08;12.40;;;5.73;;
11222;SDS011;5668;52.012;8.724;2023-04-25T00:37:37;9.67;;;5.37;;
11222;SDS011;5668;52.012;8.724;2023-04-25T00:40:05;9.53;;;5.03;;
11222;SDS011;5668;52.012;8.724;2023-04-25T00:42:35;8.60;;;4.90;;
11222;SDS011;5668;52.012;8.724;2023-04-25T00:45:04;9.93;;;5.00;;
11222;SDS011;5668;52.012;8.724;2023-04-25T00:47:33;11.20;;;5.77;;
11222;SDS011;5668;52.012;8.724;2023-04-25T00:50:02;11.20;;;5.20;;
11222;SDS011;5668;52.012;8.724;2023-04-25T00:52:30;10.27;;;5.77;;
11222;SDS011;5668;52.012;8.724;2023-04-25T00:54:59;10.13;;;5.40;;
11222;SDS011;5668;52.012;8.724;2023-04-25T00:57:27;9.53;;;5.10;;
11222;SDS011;5668;52.012;8.724;2023-04-25T00:59:54;10.43;;;5.60;;
11222;SDS011;5668;52.012;8.724;2023-04-25T01:02:22;12.90;;;5.77;;
11222;SDS011;5668;52.012;8.724;2023-04-25T01:04:50;13.60;;;5.97;;
11222;SDS011;5668;52.012;8.724;2023-04-25T01:07:19;11.83;;;5.50;;
11222;SDS011;5668;52.012;8.724;2023-04-25T01:09:46;13.07;;;6.23;;
11222;SDS011;5668;52.012;8.724;2023-04-25T01:12:15;15.10;;;5.20;;
11222;SDS011;5668;52.012;8.724;2023-04-25T01:14:42;9.57;;;5.17;;
11222;SDS011;5668;52.012;8.724;2023-04-25T01:17:10;10.57;;;5.90;;
11222;SDS011;5668;52.012;8.724;2023-04-25T01:19:37;11.00;;;5.80;;
11222;SDS011;5668;52.012;8.724;2023-04-25T01:22:06;11.20;;;5.97;;
11222;SDS011;5668;52.012;8.724;2023-04-25T01:24:35;11.80;;;5.83;;
11222;SDS011;5668;52.012;8.724;2023-04-25T01:27:03;9.83;;;6.00;;
11222;SDS011;5668;52.012;8.724;2023-04-25T01:29:31;12.50;;;6.23;;
11222;SDS011;5668;52.012;8.724;2023-04-25T01:31:58;15.57;;;6.30;;
11222;SDS011;5668;52.012;8.724;2023-04-25T01:34:26;11.07;;;6.70;;
11222;SDS011;5668;52.012;8.724;2023-04-25T01:36:53;10.73;;;6.07;;
11222;SDS011;5668;52.012;8.724;2023-04-25T01:39:22;9.27;;;5.90;;
11222;SDS011;5668;52.012;8.724;2023-04-25T01:41:49;12.00;;;6.43;;
11222;SDS011;5668;52.012;8.724;2023-04-25T01:44:17;13.43;;;6.30;;
11222;SDS011;5668;52.012;8.724;2023-04-25T01:46:44;12.27;;;6.20;;
11222;SDS011;5668;52.012;8.724;2023-04-25T01:49:11;11.53;;;6.00;;
11222;SDS011;5668;52.012;8.724;2023-04-25T01:51:39;9.97;;;5.80;;
11222;SDS011;5668;52.012;8.724;2023-04-25T01:54:06;12.50;;;6.27;;
11222;SDS011;5668;52.012;8.724;2023-04-25T01:56:37;12.80;;;5.90;;
11222;SDS011;5668;52.012;8.724;2023-04-25T01:59:05;6.87;;;5.17;;
11222;SDS011;5668;52.012;8.724;2023-04-25T02:01:32;13.23;;;5.67;;
11222;SDS011;5668;52.012;8.724;2023-04-25T02:04:00;9.83;;;5.20;;
11222;SDS011;5668;52.012;8.724;2023-04-25T02:06:27;10.03;;;5.17;;
11222;SDS011;5668;52.012;8.724;2023-04-25T02:08:55;9.70;;;5.13;;
11222;SDS011;5668;52.012;8.724;2023-04-25T02:11:23;11.13;;;5.57;;
11222;SDS011;5668;52.012;8.724;2023-04-25T02:13:51;8.77;;;5.10;;
11222;SDS011;5668;52.012;8.724;2023-04-25T02:16:18;8.40;;;5.33;;
11222;SDS011;5668;52.012;8.724;2023-04-25T02:18:46;9.03;;;4.83;;
11222;SDS011;5668;52.012;8.724;2023-04-25T02:21:13;7.03;;;4.70;;
11222;SDS011;5668;52.012;8.724;2023-04-25T02:23:40;7.63;;;4.90;;
11222;SDS011;5668;52.012;8.724;2023-04-25T02:26:07;9.60;;;5.37;;
11222;SDS011;5668;52.012;8.724;2023-04-25T02:28:36;7.53;;;5.00;;
11222;SDS011;5668;52.012;8.724;2023-04-25T02:31:05;8.43;;;5.50;;
11222;SDS011;5668;52.012;8.724;2023-04-25T02:33:32;8.33;;;4.83;;
11222;SDS011;5668;52.012;8.724;2023-04-25T02:35:59;7.37;;;4.70;;
11222;SDS011;5668;52.012;8.724;2023-04-25T02:38:26;9.50;;;5.13;;
11222;SDS011;5668;52.012;8.724;2023-04-25T02:40:53;9.53;;;4.33;;
11222;SDS011;5668;52.012;8.724;2023-04-25T02:43:21;7.17;;;4.40;;
11222;SDS011;5668;52.012;8.724;2023-04-25T02:45:48;6.23;;;4.47;;
11222;SDS011;5668;52.012;8.724;2023-04-25T02:48:16;7.50;;;4.20;;
11222;SDS011;5668;52.012;8.724;2023-04-25T02:50:44;5.00;;;4.07;;
11222;SDS011;5668;52.012;8.724;2023-04-25T02:53:11;5.50;;;4.13;;
11222;SDS011;5668;52.012;8.724;2023-04-25T02:55:38;7.27;;;4.57;;
11222;SDS011;5668;52.012;8.724;2023-04-25T02:58:05;6.70;;;4.73;;
11222;SDS011;5668;52.012;8.724;2023-04-25T03:00:33;5.73;;;3.97;;
11222;SDS011;5668;52.012;8.724;2023-04-25T03:03:00;6.77;;;4.00;;
11222;SDS011;5668;52.012;8.724;2023-04-25T03:05:28;5.57;;;3.73;;
11222;SDS011;5668;52.012;8.724;2023-04-25T03:07:56;9.53;;;3.83;;
11222;SDS011;5668;52.012;8.724;2023-04-25T03:10:23;4.73;;;3.53;;
11222;SDS011;5668;52.012;8.724;2023-04-25T03:12:51;10.33;;;3.97;;
11222;SDS011;5668;52.012;8.724;2023-04-25T03:15:18;11.27;;;3.70;;
11222;SDS011;5668;52.012;8.724;2023-04-25T03:17:45;10.73;;;3.70;;
11222;SDS011;5668;52.012;8.724;2023-04-25T03:20:13;8.10;;;3.50;;
11222;SDS011;5668;52.012;8.724;2023-04-25T03:22:42;9.53;;;3.47;;
11222;SDS011;5668;52.012;8.724;2023-04-25T03:25:10;12.07;;;3.70;;
11222;SDS011;5668;52.012;8.724;2023-04-25T03:27:37;10.93;;;4.17;;
11222;SDS011;5668;52.012;8.724;2023-04-25T03:30:05;10.50;;;4.33;;
11222;SDS011;5668;52.012;8.724;2023-04-25T03:32:33;11.73;;;4.00;;
11222;SDS011;5668;52.012;8.724;2023-04-25T03:35:00;9.93;;;3.53;;
11222;SDS011;5668;52.012;8.724;2023-04-25T03:37:28;13.47;;;4.40;;
11222;SDS011;5668;52.012;8.724;2023-04-25T03:39:56;12.07;;;3.83;;
11222;SDS011;5668;52.012;8.724;2023-04-25T03:42:23;10.47;;;3.30;;
11222;SDS011;5668;52.012;8.724;2023-04-25T03:44:51;10.13;;;3.27;;
11222;SDS011;5668;52.012;8.724;2023-04-25T03:47:18;12.50;;;4.07;;
11222;SDS011;5668;52.012;8.724;2023-04-25T03:49:45;8.67;;;3.60;;
11222;SDS011;5668;52.012;8.724;2023-04-25T03:52:14;13.87;;;3.60;;
11222;SDS011;5668;52.012;8.724;2023-04-25T03:54:41;12.70;;;4.27;;
11222;SDS011;5668;52.012;8.724;2023-04-25T03:57:10;12.00;;;3.90;;
11222;SDS011;5668;52.012;8.724;2023-04-25T03:59:37;14.17;;;4.53;;
11222;SDS011;5668;52.012;8.724;2023-04-25T04:02:04;11.07;;;3.73;;
11222;SDS011;5668;52.012;8.724;2023-04-25T04:04:31;12.03;;;4.13;;
11222;SDS011;5668;52.012;8.724;2023-04-25T04:06:59;11.83;;;3.77;;
11222;SDS011;5668;52.012;8.724;2023-04-25T04:09:26;18.53;;;4.03;;
11222;SDS011;5668;52.012;8.724;2023-04-25T04:11:53;12.10;;;3.40;;
11222;SDS011;5668;52.012;8.724;2023-04-25T04:14:22;14.93;;;4.03;;
11222;SDS011;5668;52.012;8.724;2023-04-25T04:16:50;17.87;;;4.57;;
11222;SDS011;5668;52.012;8.724;2023-04-25T04:19:17;9.60;;;3.83;;
11222;SDS011;5668;52.012;8.724;2023-04-25T04:21:45;10.77;;;3.87;;
11222;SDS011;5668;52.012;8.724;2023-04-25T04:24:12;13.87;;;4.60;;
11222;SDS011;5668;52.012;8.724;2023-04-25T04:26:40;17.23;;;4.23;;
11222;SDS011;5668;52.012;8.724;2023-04-25T04:29:09;15.20;;;4.27;;
11222;SDS011;5668;52.012;8.724;2023-04-25T04:31:39;10.47;;;3.27;;
11222;SDS011;5668;52.012;8.724;2023-04-25T04:34:06;13.73;;;4.20;;
11222;SDS011;5668;52.012;8.724;2023-04-25T04:36:34;14.23;;;4.07;;
11222;SDS011;5668;52.012;8.724;2023-04-25T04:39:01;11.07;;;3.70;;
11222;SDS011;5668;52.012;8.724;2023-04-25T04:41:30;9.20;;;3.37;;
11222;SDS011;5668;52.012;8.724;2023-04-25T04:43:57;12.37;;;4.03;;
11222;SDS011;5668;52.012;8.724;2023-04-25T04:46:26;11.17;;;3.80;;
11222;SDS011;5668;52.012;8.724;2023-04-25T04:48:55;10.10;;;3.97;;
11222;SDS011;5668;52.012;8.724;2023-04-25T04:51:23;9.77;;;3.70;;
11222;SDS011;5668;52.012;8.724;2023-04-25T04:53:50;9.43;;;4.37;;
11222;SDS011;5668;52.012;8.724;2023-04-25T04:56:18;8.73;;;3.63;;
11222;SDS011;5668;52.012;8.724;2023-04-25T04:58:48;10.97;;;3.70;;
11222;SDS011;5668;52.012;8.724;2023-04-25T05:01:15;12.40;;;4.17;;
11222;SDS011;5668;52.012;8.724;2023-04-25T05:03:42;9.23;;;3.60;;
11222;SDS011;5668;52.012;8.724;2023-04-25T05:06:11;15.37;;;4.60;;
11222;SDS011;5668;52.012;8.724;2023-04-25T05:08:40;15.67;;;3.93;;
11222;SDS011;5668;52.012;8.724;2023-04-25T05:11:07;10.70;;;3.60;;
11222;SDS011;5668;52.012;8.724;2023-04-25T05:13:35;11.53;;;3.90;;
11222;SDS011;5668;52.012;8.724;2023-04-25T05:16:02;12.57;;;3.97;;
11222;SDS011;5668;52.012;8.724;2023-04-25T05:18:30;12.70;;;3.70;;
11222;SDS011;5668;52.012;8.724;2023-04-25T05:20:57;13.90;;;4.57;;
11222;SDS011;5668;52.012;8.724;2023-04-25T05:23:25;9.33;;;3.83;;
11222;SDS011;5668;52.012;8.724;2023-04-25T05:25:55;12.37;;;4.13;;
11222;SDS011;5668;52.012;8.724;2023-04-25T05:28:22;9.37;;;3.97;;
11222;SDS011;5668;52.012;8.724;2023-04-25T05:30:49;17.23;;;5.07;;
11222;SDS011;5668;52.012;8.724;2023-04-25T05:33:17;10.33;;;4.03;;
11222;SDS011;5668;52.012;8.724;2023-04-25T05:35:44;14.63;;;4.47;;
11222;SDS011;5668;52.012;8.724;2023-04-25T05:38:12;11.00;;;4.97;;
11222;SDS011;5668;52.012;8.724;2023-04-25T05:40:41;16.30;;;4.73;;
11222;SDS011;5668;52.012;8.724;2023-04-25T05:43:08;12.93;;;4.53;;
11222;SDS011;5668;52.012;8.724;2023-04-25T05:45:35;12.87;;;4.63;;
11222;SDS011;5668;52.012;8.724;2023-04-25T05:48:02;10.03;;;4.50;;
11222;SDS011;5668;52.012;8.724;2023-04-25T05:50:30;13.23;;;5.33;;
11222;SDS011;5668;52.012;8.724;2023-04-25T05:52:57;11.50;;;5.17;;
11222;SDS011;5668;52.012;8.724;2023-04-25T05:55:24;14.23;;;4.93;;
11222;SDS011;5668;52.012;8.724;2023-04-25T05:57:53;14.00;;;5.10;;
11222;SDS011;5668;52.012;8.724;2023-04-25T06:00:20;12.10;;;4.73;;
11222;SDS011;5668;52.012;8.724;2023-04-25T06:02:47;16.87;;;4.97;;
11222;SDS011;5668;52.012;8.724;2023-04-25T06:05:15;12.00;;;5.00;;
11222;SDS011;5668;52.012;8.724;2023-04-25T06:07:42;11.20;;;4.80;;
11222;SDS011;5668;52.012;8.724;2023-04-25T06:10:10;16.00;;;5.13;;
11222;SDS011;5668;52.012;8.724;2023-04-25T06:12:38;12.63;;;4.60;;
11222;SDS011;5668;52.012;8.724;2023-04-25T06:15:07;17.47;;;5.20;;
11222;SDS011;5668;52.012;8.724;2023-04-25T06:17:35;10.77;;;4.10;;
11222;SDS011;5668;52.012;8.724;2023-04-25T06:20:03;14.43;;;4.23;;
11222;SDS011;5668;52.012;8.724;2023-04-25T06:22:34;12.67;;;4.23;;
11222;SDS011;5668;52.012;8.724;2023-04-25T06:25:02;14.33;;;3.80;;
11222;SDS011;5668;52.012;8.724;2023-04-25T06:27:29;10.23;;;3.70;;
11222;SDS011;5668;52.012;8.724;2023-04-25T06:29:56;10.23;;;3.57;;
11222;SDS011;5668;52.012;8.724;2023-04-25T06:32:25;10.43;;;3.30;;
11222;SDS011;5668;52.012;8.724;2023-04-25T06:34:54;10.30;;;3.60;;
11222;SDS011;5668;52.012;8.724;2023-04-25T06:37:23;9.80;;;3.63;;
11222;SDS011;5668;52.012;8.724;2023-04-25T06:39:50;17.97;;;5.30;;
11222;SDS011;5668;52.012;8.724;2023-04-25T06:42:17;9.77;;;3.43;;
11222;SDS011;5668;52.012;8.724;2023-04-25T06:44:45;12.40;;;4.30;;
11222;SDS011;5668;52.012;8.724;2023-04-25T06:47:12;15.10;;;3.80;;
11222;SDS011;5668;52.012;8.724;2023-04-25T06:49:40;10.20;;;3.07;;
11222;SDS011;5668;52.012;8.724;2023-04-25T06:52:08;11.30;;;3.70;;
11222;SDS011;5668;52.012;8.724;2023-04-25T06:54:35;9.83;;;3.47;;
11222;SDS011;5668;52.012;8.724;2023-04-25T06:57:02;10.10;;;3.00;;
11222;SDS011;5668;52.012;8.724;2023-04-25T06:59:30;12.77;;;2.97;;
11222;SDS011;5668;52.012;8.724;2023-04-25T07:01:57;10.73;;;3.40;;
11222;SDS011;5668;52.012;8.724;2023-04-25T07:04:25;10.33;;;3.20;;
11222;SDS011;5668;52.012;8.724;2023-04-25T07:06:53;13.67;;;3.43;;
11222;SDS011;5668;52.012;8.724;2023-04-25T07:09:20;11.60;;;3.30;;
11222;SDS011;5668;52.012;8.724;2023-04-25T07:11:48;13.10;;;3.27;;
11222;SDS011;5668;52.012;8.724;2023-04-25T07:14:15;7.23;;;2.97;;
11222;SDS011;5668;52.012;8.724;2023-04-25T07:16:42;11.23;;;3.80;;
11222;SDS011;5668;52.012;8.724;2023-04-25T07:19:09;10.13;;;2.77;;
11222;SDS011;5668;52.012;8.724;2023-04-25T07:21:37;12.83;;;3.63;;
11222;SDS011;5668;52.012;8.724;2023-04-25T07:24:06;9.77;;;2.87;;
11222;SDS011;5668;52.012;8.724;2023-04-25T07:26:33;8.83;;;3.53;;
11222;SDS011;5668;52.012;8.724;2023-04-25T07:29:00;11.70;;;4.10;;
11222;SDS011;5668;52.012;8.724;2023-04-25T07:31:27;11.03;;;3.40;;
11222;SDS011;5668;52.012;8.724;2023-04-25T07:33:55;13.00;;;2.80;;
11222;SDS011;5668;52.012;8.724;2023-04-25T07:36:22;12.87;;;3.33;;
11222;SDS011;5668;52.012;8.724;2023-04-25T07:38:50;11.87;;;2.70;;
11222;SDS011;5668;52.012;8.724;2023-04-25T07:41:19;11.10;;;3.23;;
11222;SDS011;5668;52.012;8.724;2023-04-25T07:43:46;9.47;;;3.03;;
11222;SDS011;5668;52.012;8.724;2023-04-25T07:46:13;19.53;;;3.67;;
11222;SDS011;5668;52.012;8.724;2023-04-25T07:48:40;11.87;;;2.90;;
11222;SDS011;5668;52.012;8.724;2023-04-25T07:51:07;8.97;;;3.47;;
11222;SDS011;5668;52.012;8.724;2023-04-25T07:53:35;8.67;;;2.90;;
11222;SDS011;5668;52.012;8.724;2023-04-25T07:56:02;12.80;;;3.60;;
11222;SDS011;5668;52.012;8.724;2023-04-25T07:58:31;8.43;;;2.80;;
11222;SDS011;5668;52.012;8.724;2023-04-25T08:00:58;10.43;;;3.07;;
11222;SDS011;5668;52.012;8.724;2023-04-25T08:03:25;11.93;;;2.90;;
11222;SDS011;5668;52.012;8.724;2023-04-25T08:05:53;8.30;;;2.83;;
11222;SDS011;5668;52.012;8.724;2023-04-25T08:08:20;9.27;;;2.50;;
11222;SDS011;5668;52.012;8.724;2023-04-25T08:10:47;6.07;;;2.60;;
11222;SDS011;5668;52.012;8.724;2023-04-25T08:13:15;12.10;;;3.50;;
11222;SDS011;5668;52.012;8.724;2023-04-25T08:15:44;7.80;;;2.80;;
11222;SDS011;5668;52.012;8.724;2023-04-25T08:18:11;10.53;;;2.90;;
11222;SDS011;5668;52.012;8.724;2023-04-25T08:20:38;10.50;;;2.77;;
11222;SDS011;5668;52.012;8.724;2023-04-25T08:23:05;10.67;;;3.07;;
11222;SDS011;5668;52.012;8.724;2023-04-25T08:25:33;9.67;;;3.00;;
11222;SDS011;5668;52.012;8.724;2023-04-25T08:28:00;9.80;;;2.47;;
11222;SDS011;5668;52.012;8.724;2023-04-25T08:30:28;7.80;;;2.60;;
11222;SDS011;5668;52.012;8.724;2023-04-25T08:32:57;6.87;;;2.77;;
11222;SDS011;5668;52.012;8.724;2023-04-25T08:35:24;9.90;;;2.87;;
11222;SDS011;5668;52.012;8.724;2023-04-25T08:37:51;12.37;;;2.73;;
11222;SDS011;5668;52.012;8.724;2023-04-25T08:40:19;7.67;;;2.30;;
11222;SDS011;5668;52.012;8.724;2023-04-25T08:42:51;6.30;;;2.37;;
11222;SDS011;5668;52.012;8.724;2023-04-25T08:45:20;7.10;;;2.13;;
11222;SDS011;5668;52.012;8.724;2023-04-25T08:47:47;6.73;;;2.37;;
11222;SDS011;5668;52.012;8.724;2023-04-25T08:50:19;6.47;;;2.07;;
11222;SDS011;5668;52.012;8.724;2023-04-25T08:52:49;6.77;;;2.50;;
11222;SDS011;5668;52.012;8.724;2023-04-25T08:55:19;9.47;;;2.43;;
11222;SDS011;5668;52.012;8.724;2023-04-25T08:57:47;5.03;;;1.93;;
11222;SDS011;5668;52.012;8.724;2023-04-25T09:00:15;7.03;;;2.57;;
11222;SDS011;5668;52.012;8.724;2023-04-25T09:02:44;6.23;;;2.47;;
11222;SDS011;5668;52.012;8.724;2023-04-25T09:05:13;6.63;;;2.37;;
11222;SDS011;5668;52.012;8.724;2023-04-25T09:07:41;5.13;;;2.00;;
11222;SDS011;5668;52.012;8.724;2023-04-25T09:10:09;9.67;;;2.47;;
11222;SDS011;5668;52.012;8.724;2023-04-25T09:12:38;7.10;;;2.40;;
11222;SDS011;5668;52.012;8.724;2023-04-25T09:15:06;5.77;;;2.10;;
11222;SDS011;5668;52.012;8.724;2023-04-25T09:17:35;4.27;;;2.07;;
11222;SDS011;5668;52.012;8.724;2023-04-25T09:20:05;7.37;;;2.10;;
11222;SDS011;5668;52.012;8.724;2023-04-25T09:22:34;5.23;;;1.90;;
11222;SDS011;5668;52.012;8.724;2023-04-25T09:25:07;8.40;;;2.20;;
11222;SDS011;5668;52.012;8.724;2023-04-25T09:27:35;6.23;;;2.23;;
11222;SDS011;5668;52.012;8.724;2023-04-25T09:30:03;7.97;;;2.40;;
11222;SDS011;5668;52.012;8.724;2023-04-25T09:32:31;7.13;;;2.40;;
11222;SDS011;5668;52.012;8.724;2023-04-25T09:34:58;5.53;;;2.00;;
11222;SDS011;5668;52.012;8.724;2023-04-25T09:37:25;3.00;;;2.40;;
11222;SDS011;5668;52.012;8.724;2023-04-25T09:39:54;5.97;;;2.30;;
11222;SDS011;5668;52.012;8.724;2023-04-25T09:42:25;3.43;;;1.83;;
11222;SDS011;5668;52.012;8.724;2023-04-25T09:44:54;3.90;;;2.10;;
11222;SDS011;5668;52.012;8.724;2023-04-25T09:47:23;5.93;;;2.43;;
11222;SDS011;5668;52.012;8.724;2023-04-25T09:49:52;6.77;;;2.10;;
11222;SDS011;5668;52.012;8.724;2023-04-25T09:52:20;4.57;;;2.37;;
11222;SDS011;5668;52.012;8.724;2023-04-25T09:54:49;4.13;;;2.20;;
11222;SDS011;5668;52.012;8.724;2023-04-25T09:57:18;7.47;;;2.37;;
11222;SDS011;5668;52.012;8.724;2023-04-25T09:59:47;4.43;;;2.03;;
11222;SDS011;5668;52.012;8.724;2023-04-25T10:02:16;5.23;;;2.10;;
11222;SDS011;5668;52.012;8.724;2023-04-25T10:04:47;8.43;;;2.40;;
11222;SDS011;5668;52.012;8.724;2023-04-25T10:07:19;5.57;;;1.93;;
11222;SDS011;5668;52.012;8.724;2023-04-25T10:09:50;7.20;;;2.10;;
11222;SDS011;5668;52.012;8.724;2023-04-25T10:12:25;5.93;;;1.80;;
11222;SDS011;5668;52.012;8.724;2023-04-25T10:14:54;5.53;;;1.87;;
11222;SDS011;5668;52.012;8.724;2023-04-25T10:17:22;4.80;;;2.00;;
11222;SDS011;5668;52.012;8.724;2023-04-25T10:19:50;6.87;;;2.10;;
11222;SDS011;5668;52.012;8.724;2023-04-25T10:22:18;6.53;;;1.80;;
11222;SDS011;5668;52.012;8.724;2023-04-25T10:24:52;2.97;;;1.80;;
11222;SDS011;5668;52.012;8.724;2023-04-25T10:27:19;6.03;;;1.90;;
11222;SDS011;5668;52.012;8.724;2023-04-25T10:29:48;5.07;;;1.80;;
11222;SDS011;5668;52.012;8.724;2023-04-25T10:32:30;4.23;;;1.60;;
11222;SDS011;5668;52.012;8.724;2023-04-25T10:35:04;5.87;;;1.80;;
11222;SDS011;5668;52.012;8.724;2023-04-25T10:37:37;5.93;;;2.03;;
11222;SDS011;5668;52.012;8.724;2023-04-25T10:40:09;3.27;;;1.90;;
11222;SDS011;5668;52.012;8.724;2023-04-25T10:42:37;6.10;;;2.37;;
11222;SDS011;5668;52.012;8.724;2023-04-25T10:45:09;5.30;;;2.00;;
11222;SDS011;5668;52.012;8.724;2023-04-25T10:47:36;4.90;;;1.60;;
11222;SDS011;5668;52.012;8.724;2023-04-25T10:50:09;4.30;;;1.60;;
11222;SDS011;5668;52.012;8.724;2023-04-25T10:52:38;4.57;;;1.90;;
11222;SDS011;5668;52.012;8.724;2023-04-25T10:55:06;3.37;;;1.60;;
11222;SDS011;5668;52.012;8.724;2023-04-25T10:57:37;5.13;;;1.70;;
11222;SDS011;5668;52.012;8.724;2023-04-25T11:00:07;8.93;;;2.10;;
11222;SDS011;5668;52.012;8.724;2023-04-25T11:02:40;3.93;;;1.60;;
11222;SDS011;5668;52.012;8.724;2023-04-25T11:05:10;5.97;;;1.90;;
11222;SDS011;5668;52.012;8.724;2023-04-25T11:07:44;4.43;;;1.93;;
11222;SDS011;5668;52.012;8.724;2023-04-25T11:10:16;3.97;;;1.73;;
11222;SDS011;5668;52.012;8.724;2023-04-25T11:12:50;6.00;;;2.07;;
11222;SDS011;5668;52.012;8.724;2023-04-25T11:15:19;5.47;;;1.83;;
11222;SDS011;5668;52.012;8.724;2023-04-25T11:17:46;5.53;;;1.53;;
11222;SDS011;5668;52.012;8.724;2023-04-25T11:20:14;5.77;;;2.00;;
11222;SDS011;5668;52.012;8.724;2023-04-25T11:22:42;3.87;;;2.00;;
11222;SDS011;5668;52.012;8.724;2023-04-25T11:25:11;4.80;;;1.90;;
11222;SDS011;5668;52.012;8.724;2023-04-25T11:27:49;2.83;;;1.73;;
11222;SDS011;5668;52.012;8.724;2023-04-25T11:30:18;5.93;;;1.90;;
11222;SDS011;5668;52.012;8.724;2023-04-25T11:32:47;5.67;;;2.07;;
11222;SDS011;5668;52.012;8.724;2023-04-25T11:35:14;4.80;;;2.03;;
11222;SDS011;5668;52.012;8.724;2023-04-25T11:37:43;3.67;;;1.87;;
11222;SDS011;5668;52.012;8.724;2023-04-25T11:40:11;7.30;;;2.30;;
11222;SDS011;5668;52.012;8.724;2023-04-25T11:42:41;6.03;;;2.00;;
11222;SDS011;5668;52.012;8.724;2023-04-25T11:45:11;6.17;;;1.80;;
11222;SDS011;5668;52.012;8.724;2023-04-25T11:47:40;4.43;;;1.73;;
11222;SDS011;5668;52.012;8.724;2023-04-25T11:50:07;4.33;;;2.00;;
11222;SDS011;5668;52.012;8.724;2023-04-25T11:52:37;6.67;;;1.90;;
11222;SDS011;5668;52.012;8.724;2023-04-25T11:55:06;4.80;;;1.90;;
11222;SDS011;5668;52.012;8.724;2023-04-25T11:57:34;5.93;;;1.73;;
11222;SDS011;5668;52.012;8.724;2023-04-25T12:00:05;6.00;;;1.93;;
11222;SDS011;5668;52.012;8.724;2023-04-25T12:02:36;5.93;;;2.17;;
11222;SDS011;5668;52.012;8.724;2023-04-25T12:05:07;6.50;;;2.00;;
11222;SDS011;5668;52.012;8.724;2023-04-25T12:07:34;4.67;;;2.23;;
11222;SDS011;5668;52.012;8.724;2023-04-25T12:10:06;4.13;;;2.00;;
11222;SDS011;5668;52.012;8.724;2023-04-25T12:12:35;5.30;;;2.20;;
11222;SDS011;5668;52.012;8.724;2023-04-25T12:15:10;4.70;;;2.03;;
11222;SDS011;5668;52.012;8.724;2023-04-25T12:17:40;4.23;;;1.83;;
11222;SDS011;5668;52.012;8.724;2023-04-25T12:20:12;6.77;;;2.30;;
11222;SDS011;5668;52.012;8.724;2023-04-25T12:22:41;4.93;;;1.90;;
11222;SDS011;5668;52.012;8.724;2023-04-25T12:25:10;6.20;;;2.20;;
11222;SDS011;5668;52.012;8.724;2023-04-25T12:27:38;5.17;;;1.80;;
11222;SDS011;5668;52.012;8.724;2023-04-25T12:30:08;5.77;;;2.03;;
11222;SDS011;5668;52.012;8.724;2023-04-25T12:32:36;5.77;;;2.00;;
11222;SDS011;5668;52.012;8.724;2023-04-25T12:35:04;4.97;;;1.80;;
11222;SDS011;5668;52.012;8.724;2023-04-25T12:37:33;6.07;;;2.50;;
11222;SDS011;5668;52.012;8.724;2023-04-25T12:40:01;4.43;;;2.07;;
11222;SDS011;5668;52.012;8.724;2023-04-25T12:42:29;3.60;;;1.70;;
11222;SDS011;5668;52.012;8.724;2023-04-25T12:44:56;5.80;;;2.10;;
11222;SDS011;5668;52.012;8.724;2023-04-25T12:47:23;5.67;;;1.97;;
11222;SDS011;5668;52.012;8.724;2023-04-25T12:49:51;5.17;;;2.43;;
11222;SDS011;5668;52.012;8.724;2023-04-25T12:52:18;2.63;;;1.80;;
11222;SDS011;5668;52.012;8.724;2023-04-25T12:54:46;3.93;;;1.80;;
11222;SDS011;5668;52.012;8.724;2023-04-25T12:57:14;3.77;;;1.60;;
11222;SDS011;5668;52.012;8.724;2023-04-25T12:59:41;6.57;;;1.60;;
11222;SDS011;5668;52.012;8.724;2023-04-25T13:02:08;5.23;;;1.67;;
11222;SDS011;5668;52.012;8.724;2023-04-25T13:04:36;2.93;;;1.73;;
11222;SDS011;5668;52.012;8.724;2023-04-25T13:07:03;4.27;;;1.83;;
11222;SDS011;5668;52.012;8.724;2023-04-25T13:09:30;5.07;;;1.80;;
11222;SDS011;5668;52.012;8.724;2023-04-25T13:11:59;4.57;;;1.93;;
11222;SDS011;5668;52.012;8.724;2023-04-25T13:14:26;3.87;;;1.80;;
11222;SDS011;5668;52.012;8.724;2023-04-25T13:16:53;3.90;;;1.63;;
11222;SDS011;5668;52.012;8.724;2023-04-25T13:19:21;4.07;;;1.60;;
11222;SDS011;5668;52.012;8.724;2023-04-25T13:21:48;3.90;;;1.50;;
11222;SDS011;5668;52.012;8.724;2023-04-25T13:24:15;2.90;;;1.70;;
11222;SDS011;5668;52.012;8.724;2023-04-25T13:26:43;3.80;;;1.50;;
11222;SDS011;5668;52.012;8.724;2023-04-25T13:29:11;3.30;;;1.50;;
11222;SDS011;5668;52.012;8.724;2023-04-25T13:31:38;4.30;;;1.50;;
11222;SDS011;5668;52.012;8.724;2023-04-25T13:34:05;4.07;;;1.73;;
11222;SDS011;5668;52.012;8.724;2023-04-25T13:36:33;4.50;;;1.80;;
11222;SDS011;5668;52.012;8.724;2023-04-25T13:39:00;6.03;;;1.67;;
11222;SDS011;5668;52.012;8.724;2023-04-25T13:41:29;3.03;;;1.30;;
11222;SDS011;5668;52.012;8.724;2023-04-25T13:43:56;1.70;;;1.20;;
11222;SDS011;5668;52.012;8.724;2023-04-25T13:46:26;1.93;;;1.17;;
11222;SDS011;5668;52.012;8.724;2023-04-25T13:48:53;3.33;;;1.17;;
11222;SDS011;5668;52.012;8.724;2023-04-25T13:51:20;3.43;;;1.50;;
11222;SDS011;5668;52.012;8.724;2023-04-25T13:53:47;2.73;;;1.17;;
11222;SDS011;5668;52.012;8.724;2023-04-25T13:56:14;1.63;;;1.20;;
11222;SDS011;5668;52.012;8.724;2023-04-25T13:58:44;2.67;;;1.17;;
11222;SDS011;5668;52.012;8.724;2023-04-25T14:01:11;2.43;;;1.37;;
11222;SDS011;5668;52.012;8.724;2023-04-25T14:03:40;2.40;;;1.10;;
11222;SDS011;5668;52.012;8.724;2023-04-25T14:06:07;2.50;;;1.10;;
11222;SDS011;5668;52.012;8.724;2023-04-25T14:08:36;1.50;;;1.17;;
11222;SDS011;5668;52.012;8.724;2023-04-25T14:11:04;2.37;;;1.27;;
11222;SDS011;5668;52.012;8.724;2023-04-25T14:13:31;1.20;;;1.07;;
11222;SDS011;5668;52.012;8.724;2023-04-25T14:15:58;2.00;;;1.20;;
11222;SDS011;5668;52.012;8.724;2023-04-25T14:18:25;1.93;;;1.40;;
11222;SDS011;5668;52.012;8.724;2023-04-25T14:20:54;1.67;;;1.10;;
11222;SDS011;5668;52.012;8.724;2023-04-25T14:23:21;2.47;;;1.27;;
11222;SDS011;5668;52.012;8.724;2023-04-25T14:25:48;4.20;;;1.30;;
11222;SDS011;5668;52.012;8.724;2023-04-25T14:28:16;5.07;;;1.70;;
11222;SDS011;5668;52.012;8.724;2023-04-25T14:30:43;3.83;;;1.73;;
11222;SDS011;5668;52.012;8.724;2023-04-25T14:33:10;5.57;;;1.60;;
11222;SDS011;5668;52.012;8.724;2023-04-25T14:35:38;4.20;;;1.40;;
11222;SDS011;5668;52.012;8.724;2023-04-25T14:38:07;3.33;;;1.77;;
11222;SDS011;5668;52.012;8.724;2023-04-25T14:40:34;2.63;;;1.70;;
11222;SDS011;5668;52.012;8.724;2023-04-25T14:43:03;2.47;;;1.50;;
11222;SDS011;5668;52.012;8.724;2023-04-25T14:45:30;2.00;;;1.40;;
11222;SDS011;5668;52.012;8.724;2023-04-25T14:47:59;2.53;;;1.40;;
11222;SDS011;5668;52.012;8.724;2023-04-25T14:50:27;2.73;;;1.50;;
11222;SDS011;5668;52.012;8.724;2023-04-25T14:52:55;8.03;;;1.60;;
11222;SDS011;5668;52.012;8.724;2023-04-25T14:55:25;2.03;;;1.30;;
11222;SDS011;5668;52.012;8.724;2023-04-25T14:57:52;2.20;;;1.20;;
11222;SDS011;5668;52.012;8.724;2023-04-25T15:00:20;3.63;;;1.47;;